sensor_id;sensor_type;location;lat;lon;timestamp;temperature;humidity
33095;DHT22;19459;53.044;8.910;2023-10-31T00:02:09;12.40;99.90
33095;DHT22;19459;53.044;8.910;2023-10-31T00:04:35;12.40;99.90
33095;DHT22;19459;53.044;8.910;2023-10-31T00:07:01;12.40;99.90
33095;DHT22;19459;53.044;8.910;2023-10-31T00:09:30;12.40;99.90
33095;DHT22;19459;53.044;8.910;2023-10-31T00:11:55;12.40;99.90
33095;DHT22;19459;53.044;8.910;2023-10-31T00:14:21;12.40;99.90
33095;DHT22;19459;53.044;8.910;2023-10-31T00:16:49;12.40;99.90
33095;DHT22;19459;53.044;8.910;2023-10-31T00:19:15;12.30;99.90
33095;DHT22;19459;53.044;8.910;2023-10-31T00:21:41;12.30;99.90
33095;DHT22;19459;53.044;8.910;2023-10-31T00:24:07;12.30;99.90
33095;DHT22;19459;53.044;8.910;2023-10-31T00:26:34;12.40;99.90
33095;DHT22;19459;53.044;8.910;2023-10-31T00:29:00;12.30;99.90
33095;DHT22;19459;53.044;8.910;2023-10-31T00:31:26;12.30;99.90
33095;DHT22;19459;53.044;8.910;2023-10-31T00:33:56;12.40;99.90
33095;DHT22;19459;53.044;8.910;2023-10-31T00:36:27;12.30;99.90
33095;DHT22;19459;53.044;8.910;2023-10-31T00:49:42;12.40;99.90
33095;DHT22;19459;53.044;8.910;2023-10-31T00:52:08;12.30;99.90
33095;DHT22;19459;53.044;8.910;2023-10-31T00:54:34;12.40;99.90
33095;DHT22;19459;53.044;8.910;2023-10-31T00:57:00;12.40;99.90
33095;DHT22;19459;53.044;8.910;2023-10-31T00:59:28;12.40;99.90
33095;DHT22;19459;53.044;8.910;2023-10-31T01:01:58;12.40;99.90
33095;DHT22;19459;53.044;8.910;2023-10-31T01:04:27;12.30;99.90
33095;DHT22;19459;53.044;8.910;2023-10-31T01:06:58;12.40;99.90
33095;DHT22;19459;53.044;8.910;2023-10-31T01:09:39;12.40;99.90
33095;DHT22;19459;53.044;8.910;2023-10-31T01:30:15;12.40;99.90
33095;DHT22;19459;53.044;8.910;2023-10-31T01:36:54;12.40;99.90
33095;DHT22;19459;53.044;8.910;2023-10-31T01:39:59;12.40;99.90
33095;DHT22;19459;53.044;8.910;2023-10-31T01:42:27;12.50;99.90
33095;DHT22;19459;53.044;8.910;2023-10-31T01:52:40;12.50;99.90
33095;DHT22;19459;53.044;8.910;2023-10-31T01:55:28;12.50;99.90
33095;DHT22;19459;53.044;8.910;2023-10-31T01:58:31;12.50;99.90
33095;DHT22;19459;53.044;8.910;2023-10-31T02:04:39;12.50;99.90
33095;DHT22;19459;53.044;8.910;2023-10-31T02:07:52;12.50;99.90
33095;DHT22;19459;53.044;8.910;2023-10-31T02:10:29;12.50;99.90
33095;DHT22;19459;53.044;8.910;2023-10-31T02:13:18;12.50;99.90
33095;DHT22;19459;53.044;8.910;2023-10-31T02:21:20;12.50;99.90
33095;DHT22;19459;53.044;8.910;2023-10-31T02:24:00;12.50;99.90
33095;DHT22;19459;53.044;8.910;2023-10-31T02:26:33;12.50;99.90
33095;DHT22;19459;53.044;8.910;2023-10-31T02:29:04;12.50;99.90
33095;DHT22;19459;53.044;8.910;2023-10-31T02:35:20;12.50;99.90
33095;DHT22;19459;53.044;8.910;2023-10-31T02:41:48;12.50;99.90
33095;DHT22;19459;53.044;8.910;2023-10-31T02:44:15;12.50;99.90
33095;DHT22;19459;53.044;8.910;2023-10-31T02:46:41;12.50;99.90
33095;DHT22;19459;53.044;8.910;2023-10-31T02:49:07;12.50;99.90
33095;DHT22;19459;53.044;8.910;2023-10-31T02:51:35;12.50;99.90
33095;DHT22;19459;53.044;8.910;2023-10-31T02:54:01;12.50;99.90
33095;DHT22;19459;53.044;8.910;2023-10-31T02:56:27;12.50;99.90
33095;DHT22;19459;53.044;8.910;2023-10-31T02:58:53;12.50;99.90
33095;DHT22;19459;53.044;8.910;2023-10-31T03:01:18;12.60;99.90
33095;DHT22;19459;53.044;8.910;2023-10-31T03:03:45;12.50;99.90
33095;DHT22;19459;53.044;8.910;2023-10-31T03:06:11;12.60;99.90
33095;DHT22;19459;53.044;8.910;2023-10-31T03:08:37;12.50;99.90
33095;DHT22;19459;53.044;8.910;2023-10-31T03:11:03;12.50;99.90
33095;DHT22;19459;53.044;8.910;2023-10-31T03:13:28;12.50;99.90
33095;DHT22;19459;53.044;8.910;2023-10-31T03:16:06;12.50;99.90
33095;DHT22;19459;53.044;8.910;2023-10-31T03:18:43;12.60;99.90
33095;DHT22;19459;53.044;8.910;2023-10-31T03:21:08;12.50;99.90
33095;DHT22;19459;53.044;8.910;2023-10-31T03:23:34;12.50;99.90
33095;DHT22;19459;53.044;8.910;2023-10-31T03:26:03;12.60;99.90
33095;DHT22;19459;53.044;8.910;2023-10-31T03:28:29;12.50;99.90
33095;DHT22;19459;53.044;8.910;2023-10-31T03:30:55;12.60;99.90
33095;DHT22;19459;53.044;8.910;2023-10-31T03:33:23;12.50;99.90
33095;DHT22;19459;53.044;8.910;2023-10-31T03:36:19;12.60;99.90
33095;DHT22;19459;53.044;8.910;2023-10-31T03:42:13;12.50;99.90
33095;DHT22;19459;53.044;8.910;2023-10-31T03:48:42;12.60;99.90
33095;DHT22;19459;53.044;8.910;2023-10-31T03:51:08;12.60;99.90
33095;DHT22;19459;53.044;8.910;2023-10-31T03:53:39;12.60;99.90
33095;DHT22;19459;53.044;8.910;2023-10-31T03:56:06;12.60;99.90
33095;DHT22;19459;53.044;8.910;2023-10-31T03:58:31;12.60;99.90
33095;DHT22;19459;53.044;8.910;2023-10-31T04:00:57;12.60;99.90
33095;DHT22;19459;53.044;8.910;2023-10-31T04:03:23;12.60;99.90
33095;DHT22;19459;53.044;8.910;2023-10-31T04:06:01;12.60;99.90
33095;DHT22;19459;53.044;8.910;2023-10-31T04:08:30;12.60;99.90
33095;DHT22;19459;53.044;8.910;2023-10-31T04:10:58;12.60;99.90
33095;DHT22;19459;53.044;8.910;2023-10-31T04:13:27;12.60;99.90
33095;DHT22;19459;53.044;8.910;2023-10-31T04:15:54;12.60;99.90
33095;DHT22;19459;53.044;8.910;2023-10-31T04:39:46;12.70;99.90
33095;DHT22;19459;53.044;8.910;2023-10-31T04:45:15;12.70;99.90
33095;DHT22;19459;53.044;8.910;2023-10-31T04:50:09;12.70;99.90
33095;DHT22;19459;53.044;8.910;2023-10-31T04:55:40;12.70;99.90
33095;DHT22;19459;53.044;8.910;2023-10-31T04:58:06;12.70;99.90
33095;DHT22;19459;53.044;8.910;2023-10-31T05:00:33;12.70;99.90
33095;DHT22;19459;53.044;8.910;2023-10-31T05:02:59;12.70;99.90
33095;DHT22;19459;53.044;8.910;2023-10-31T05:05:28;12.70;99.90
33095;DHT22;19459;53.044;8.910;2023-10-31T05:08:11;12.70;99.90
33095;DHT22;19459;53.044;8.910;2023-10-31T05:10:38;12.70;99.90
33095;DHT22;19459;53.044;8.910;2023-10-31T05:13:09;12.70;99.90
33095;DHT22;19459;53.044;8.910;2023-10-31T05:15:35;12.70;99.90
33095;DHT22;19459;53.044;8.910;2023-10-31T05:18:01;12.60;99.90
33095;DHT22;19459;53.044;8.910;2023-10-31T05:20:26;12.60;99.90
33095;DHT22;19459;53.044;8.910;2023-10-31T05:22:56;12.60;99.90
33095;DHT22;19459;53.044;8.910;2023-10-31T05:25:22;12.60;99.90
33095;DHT22;19459;53.044;8.910;2023-10-31T05:27:47;12.50;99.90
33095;DHT22;19459;53.044;8.910;2023-10-31T05:30:14;12.50;99.90
33095;DHT22;19459;53.044;8.910;2023-10-31T05:32:40;12.40;99.90
33095;DHT22;19459;53.044;8.910;2023-10-31T05:35:06;12.30;99.90
33095;DHT22;19459;53.044;8.910;2023-10-31T05:37:32;12.20;99.90
33095;DHT22;19459;53.044;8.910;2023-10-31T05:39:58;12.20;99.90
33095;DHT22;19459;53.044;8.910;2023-10-31T05:42:24;12.10;99.90
33095;DHT22;19459;53.044;8.910;2023-10-31T05:44:51;12.00;99.90
33095;DHT22;19459;53.044;8.910;2023-10-31T05:47:17;12.00;99.90
33095;DHT22;19459;53.044;8.910;2023-10-31T05:49:43;12.00;99.90
33095;DHT22;19459;53.044;8.910;2023-10-31T05:52:09;11.90;99.90
33095;DHT22;19459;53.044;8.910;2023-10-31T05:54:35;11.90;99.90
33095;DHT22;19459;53.044;8.910;2023-10-31T05:57:01;11.80;99.90
33095;DHT22;19459;53.044;8.910;2023-10-31T05:59:27;11.70;99.90
33095;DHT22;19459;53.044;8.910;2023-10-31T06:01:52;11.50;99.90
33095;DHT22;19459;53.044;8.910;2023-10-31T06:04:18;11.40;99.90
33095;DHT22;19459;53.044;8.910;2023-10-31T06:06:44;11.40;99.90
33095;DHT22;19459;53.044;8.910;2023-10-31T06:09:10;11.30;99.90
33095;DHT22;19459;53.044;8.910;2023-10-31T06:11:41;11.30;99.90
33095;DHT22;19459;53.044;8.910;2023-10-31T06:14:11;11.30;99.90
33095;DHT22;19459;53.044;8.910;2023-10-31T06:16:40;11.30;99.90
33095;DHT22;19459;53.044;8.910;2023-10-31T06:19:07;11.20;99.90
33095;DHT22;19459;53.044;8.910;2023-10-31T06:21:33;11.10;99.90
33095;DHT22;19459;53.044;8.910;2023-10-31T06:23:59;11.00;99.90
33095;DHT22;19459;53.044;8.910;2023-10-31T06:26:28;11.00;99.90
33095;DHT22;19459;53.044;8.910;2023-10-31T06:28:53;11.00;99.90
33095;DHT22;19459;53.044;8.910;2023-10-31T06:31:19;10.90;99.90
33095;DHT22;19459;53.044;8.910;2023-10-31T06:33:45;10.90;99.90
33095;DHT22;19459;53.044;8.910;2023-10-31T06:36:14;10.90;99.90
33095;DHT22;19459;53.044;8.910;2023-10-31T06:38:40;10.90;99.90
33095;DHT22;19459;53.044;8.910;2023-10-31T06:41:06;10.90;99.90
33095;DHT22;19459;53.044;8.910;2023-10-31T06:43:32;10.80;99.90
33095;DHT22;19459;53.044;8.910;2023-10-31T06:45:58;10.80;99.90
33095;DHT22;19459;53.044;8.910;2023-10-31T06:48:26;10.80;99.90
33095;DHT22;19459;53.044;8.910;2023-10-31T06:50:51;10.80;99.90
33095;DHT22;19459;53.044;8.910;2023-10-31T06:53:17;10.80;99.90
33095;DHT22;19459;53.044;8.910;2023-10-31T06:55:43;10.80;99.90
33095;DHT22;19459;53.044;8.910;2023-10-31T06:58:08;10.80;99.90
33095;DHT22;19459;53.044;8.910;2023-10-31T07:00:43;10.70;99.90
33095;DHT22;19459;53.044;8.910;2023-10-31T07:03:09;10.70;99.90
33095;DHT22;19459;53.044;8.910;2023-10-31T07:05:40;10.70;99.90
33095;DHT22;19459;53.044;8.910;2023-10-31T07:08:06;10.70;99.90
33095;DHT22;19459;53.044;8.910;2023-10-31T07:10:36;10.80;99.90
33095;DHT22;19459;53.044;8.910;2023-10-31T07:13:01;10.80;99.90
33095;DHT22;19459;53.044;8.910;2023-10-31T07:15:27;10.80;99.90
33095;DHT22;19459;53.044;8.910;2023-10-31T07:17:53;10.80;99.90
33095;DHT22;19459;53.044;8.910;2023-10-31T07:20:19;10.80;99.90
33095;DHT22;19459;53.044;8.910;2023-10-31T07:22:44;10.90;99.90
33095;DHT22;19459;53.044;8.910;2023-10-31T07:25:10;10.90;99.90
33095;DHT22;19459;53.044;8.910;2023-10-31T07:27:36;11.00;99.90
33095;DHT22;19459;53.044;8.910;2023-10-31T07:30:03;11.00;99.90
33095;DHT22;19459;53.044;8.910;2023-10-31T07:32:31;11.00;99.90
33095;DHT22;19459;53.044;8.910;2023-10-31T07:34:58;11.00;99.90
33095;DHT22;19459;53.044;8.910;2023-10-31T07:37:24;11.00;99.90
33095;DHT22;19459;53.044;8.910;2023-10-31T07:39:49;11.00;99.90
33095;DHT22;19459;53.044;8.910;2023-10-31T07:42:16;11.00;99.90
33095;DHT22;19459;53.044;8.910;2023-10-31T07:44:42;11.00;99.90
33095;DHT22;19459;53.044;8.910;2023-10-31T07:47:08;11.00;99.90
33095;DHT22;19459;53.044;8.910;2023-10-31T07:49:34;11.00;99.90
33095;DHT22;19459;53.044;8.910;2023-10-31T07:51:59;11.00;99.90
33095;DHT22;19459;53.044;8.910;2023-10-31T07:54:25;11.00;99.90
33095;DHT22;19459;53.044;8.910;2023-10-31T07:56:51;11.00;99.90
33095;DHT22;19459;53.044;8.910;2023-10-31T07:59:17;11.10;99.90
33095;DHT22;19459;53.044;8.910;2023-10-31T08:01:43;11.10;99.90
33095;DHT22;19459;53.044;8.910;2023-10-31T08:04:09;11.10;99.90
33095;DHT22;19459;53.044;8.910;2023-10-31T08:06:35;11.10;99.90
33095;DHT22;19459;53.044;8.910;2023-10-31T08:09:01;11.10;99.90
33095;DHT22;19459;53.044;8.910;2023-10-31T08:11:27;11.10;99.90
33095;DHT22;19459;53.044;8.910;2023-10-31T08:13:53;11.00;99.90
33095;DHT22;19459;53.044;8.910;2023-10-31T08:16:19;11.00;99.90
33095;DHT22;19459;53.044;8.910;2023-10-31T08:18:46;11.00;99.90
33095;DHT22;19459;53.044;8.910;2023-10-31T08:21:12;11.00;99.90
33095;DHT22;19459;53.044;8.910;2023-10-31T08:23:38;11.00;99.90
33095;DHT22;19459;53.044;8.910;2023-10-31T08:26:04;11.00;99.90
33095;DHT22;19459;53.044;8.910;2023-10-31T08:28:30;11.00;99.90
33095;DHT22;19459;53.044;8.910;2023-10-31T08:30:59;11.10;99.90
33095;DHT22;19459;53.044;8.910;2023-10-31T08:33:25;11.10;99.90
33095;DHT22;19459;53.044;8.910;2023-10-31T08:35:51;11.20;99.90
33095;DHT22;19459;53.044;8.910;2023-10-31T08:38:17;11.20;99.90
33095;DHT22;19459;53.044;8.910;2023-10-31T08:40:43;11.20;99.90
33095;DHT22;19459;53.044;8.910;2023-10-31T08:43:08;11.30;99.90
33095;DHT22;19459;53.044;8.910;2023-10-31T08:45:34;11.20;99.90
33095;DHT22;19459;53.044;8.910;2023-10-31T08:48:01;11.20;99.90
33095;DHT22;19459;53.044;8.910;2023-10-31T08:50:26;11.20;99.90
33095;DHT22;19459;53.044;8.910;2023-10-31T08:52:53;11.20;99.90
33095;DHT22;19459;53.044;8.910;2023-10-31T08:55:19;11.20;99.90
33095;DHT22;19459;53.044;8.910;2023-10-31T08:57:46;11.30;99.90
33095;DHT22;19459;53.044;8.910;2023-10-31T09:00:12;11.20;99.90
33095;DHT22;19459;53.044;8.910;2023-10-31T09:02:39;11.20;99.90
33095;DHT22;19459;53.044;8.910;2023-10-31T09:05:05;11.30;99.90
33095;DHT22;19459;53.044;8.910;2023-10-31T09:07:31;11.30;99.90
33095;DHT22;19459;53.044;8.910;2023-10-31T09:09:57;11.20;99.90
33095;DHT22;19459;53.044;8.910;2023-10-31T09:12:23;11.30;99.90
33095;DHT22;19459;53.044;8.910;2023-10-31T09:14:49;11.30;99.90
33095;DHT22;19459;53.044;8.910;2023-10-31T09:17:15;11.30;99.90
33095;DHT22;19459;53.044;8.910;2023-10-31T09:19:41;11.30;99.90
33095;DHT22;19459;53.044;8.910;2023-10-31T09:22:06;11.30;99.90
33095;DHT22;19459;53.044;8.910;2023-10-31T09:24:33;11.30;99.90
33095;DHT22;19459;53.044;8.910;2023-10-31T09:26:59;11.50;99.90
33095;DHT22;19459;53.044;8.910;2023-10-31T09:29:25;11.50;99.90
33095;DHT22;19459;53.044;8.910;2023-10-31T09:31:51;11.50;99.90
33095;DHT22;19459;53.044;8.910;2023-10-31T09:34:16;11.50;99.90
33095;DHT22;19459;53.044;8.910;2023-10-31T09:36:43;11.50;99.90
33095;DHT22;19459;53.044;8.910;2023-10-31T09:39:09;11.50;99.90
33095;DHT22;19459;53.044;8.910;2023-10-31T09:41:35;11.50;99.90
33095;DHT22;19459;53.044;8.910;2023-10-31T09:44:01;11.50;99.90
33095;DHT22;19459;53.044;8.910;2023-10-31T09:46:28;11.50;99.90
33095;DHT22;19459;53.044;8.910;2023-10-31T09:48:55;11.50;99.90
33095;DHT22;19459;53.044;8.910;2023-10-31T09:51:21;11.50;99.90
33095;DHT22;19459;53.044;8.910;2023-10-31T09:53:47;11.50;99.90
33095;DHT22;19459;53.044;8.910;2023-10-31T09:56:14;11.50;99.90
33095;DHT22;19459;53.044;8.910;2023-10-31T09:58:40;11.60;99.90
33095;DHT22;19459;53.044;8.910;2023-10-31T10:01:07;11.60;99.90
33095;DHT22;19459;53.044;8.910;2023-10-31T10:03:33;11.50;99.90
33095;DHT22;19459;53.044;8.910;2023-10-31T10:05:59;11.50;99.90
33095;DHT22;19459;53.044;8.910;2023-10-31T10:08:25;11.50;99.90
33095;DHT22;19459;53.044;8.910;2023-10-31T10:10:51;11.60;99.90
33095;DHT22;19459;53.044;8.910;2023-10-31T10:13:18;11.60;99.90
33095;DHT22;19459;53.044;8.910;2023-10-31T10:15:48;11.60;99.90
33095;DHT22;19459;53.044;8.910;2023-10-31T10:18:31;11.70;99.90
33095;DHT22;19459;53.044;8.910;2023-10-31T10:21:02;11.60;99.90
33095;DHT22;19459;53.044;8.910;2023-10-31T10:23:29;11.60;99.90
33095;DHT22;19459;53.044;8.910;2023-10-31T10:25:56;11.60;99.90
33095;DHT22;19459;53.044;8.910;2023-10-31T10:28:24;11.70;99.90
33095;DHT22;19459;53.044;8.910;2023-10-31T10:30:51;11.70;99.90
33095;DHT22;19459;53.044;8.910;2023-10-31T10:33:17;11.70;99.90
33095;DHT22;19459;53.044;8.910;2023-10-31T10:35:44;11.90;99.90
33095;DHT22;19459;53.044;8.910;2023-10-31T10:38:16;11.90;99.90
33095;DHT22;19459;53.044;8.910;2023-10-31T10:40:45;11.90;99.90
33095;DHT22;19459;53.044;8.910;2023-10-31T10:43:25;12.00;99.90
33095;DHT22;19459;53.044;8.910;2023-10-31T10:45:59;12.20;99.90
33095;DHT22;19459;53.044;8.910;2023-10-31T10:48:26;12.30;99.90
33095;DHT22;19459;53.044;8.910;2023-10-31T10:51:13;12.40;99.90
33095;DHT22;19459;53.044;8.910;2023-10-31T10:53:50;12.40;99.90
33095;DHT22;19459;53.044;8.910;2023-10-31T10:56:34;12.50;99.90
33095;DHT22;19459;53.044;8.910;2023-10-31T11:01:41;12.50;99.90
33095;DHT22;19459;53.044;8.910;2023-10-31T11:04:07;12.50;99.90
33095;DHT22;19459;53.044;8.910;2023-10-31T11:06:34;12.50;99.90
33095;DHT22;19459;53.044;8.910;2023-10-31T11:09:02;12.50;99.90
33095;DHT22;19459;53.044;8.910;2023-10-31T11:11:29;12.50;99.90
33095;DHT22;19459;53.044;8.910;2023-10-31T11:13:55;12.40;99.90
33095;DHT22;19459;53.044;8.910;2023-10-31T11:16:43;12.40;99.90
33095;DHT22;19459;53.044;8.910;2023-10-31T11:19:11;12.40;99.90
33095;DHT22;19459;53.044;8.910;2023-10-31T11:21:37;12.40;99.90
33095;DHT22;19459;53.044;8.910;2023-10-31T11:24:31;12.40;99.90
33095;DHT22;19459;53.044;8.910;2023-10-31T11:27:02;12.40;99.90
33095;DHT22;19459;53.044;8.910;2023-10-31T11:29:30;12.30;99.90
33095;DHT22;19459;53.044;8.910;2023-10-31T11:31:57;12.20;99.90
33095;DHT22;19459;53.044;8.910;2023-10-31T11:34:26;12.20;99.90
33095;DHT22;19459;53.044;8.910;2023-10-31T11:36:52;12.30;99.90
33095;DHT22;19459;53.044;8.910;2023-10-31T11:39:22;12.30;99.90
33095;DHT22;19459;53.044;8.910;2023-10-31T11:41:55;12.40;99.90
33095;DHT22;19459;53.044;8.910;2023-10-31T11:44:27;12.50;99.90
33095;DHT22;19459;53.044;8.910;2023-10-31T11:46:53;12.50;99.90
33095;DHT22;19459;53.044;8.910;2023-10-31T11:49:46;12.50;99.90
33095;DHT22;19459;53.044;8.910;2023-10-31T11:52:18;12.40;99.90
33095;DHT22;19459;53.044;8.910;2023-10-31T11:54:44;12.40;99.90
33095;DHT22;19459;53.044;8.910;2023-10-31T11:57:10;12.40;99.90
33095;DHT22;19459;53.044;8.910;2023-10-31T11:59:37;12.30;99.90
33095;DHT22;19459;53.044;8.910;2023-10-31T12:02:19;12.30;99.90
33095;DHT22;19459;53.044;8.910;2023-10-31T12:04:46;12.40;99.90
33095;DHT22;19459;53.044;8.910;2023-10-31T12:07:11;12.40;99.90
33095;DHT22;19459;53.044;8.910;2023-10-31T12:09:47;12.20;99.90
33095;DHT22;19459;53.044;8.910;2023-10-31T12:12:14;12.30;99.90
33095;DHT22;19459;53.044;8.910;2023-10-31T12:14:40;12.30;99.90
33095;DHT22;19459;53.044;8.910;2023-10-31T12:17:07;12.30;99.90
33095;DHT22;19459;53.044;8.910;2023-10-31T12:19:35;12.30;99.90
33095;DHT22;19459;53.044;8.910;2023-10-31T12:22:01;12.40;99.90
33095;DHT22;19459;53.044;8.910;2023-10-31T12:24:28;12.40;99.90
33095;DHT22;19459;53.044;8.910;2023-10-31T12:26:54;12.40;99.90
33095;DHT22;19459;53.044;8.910;2023-10-31T12:29:20;12.50;99.90
33095;DHT22;19459;53.044;8.910;2023-10-31T12:31:51;12.60;99.90
33095;DHT22;19459;53.044;8.910;2023-10-31T12:34:20;12.50;99.90
33095;DHT22;19459;53.044;8.910;2023-10-31T12:36:50;12.60;99.90
33095;DHT22;19459;53.044;8.910;2023-10-31T12:39:20;12.50;99.90
33095;DHT22;19459;53.044;8.910;2023-10-31T12:41:51;12.50;99.90
33095;DHT22;19459;53.044;8.910;2023-10-31T12:44:26;12.40;99.90
33095;DHT22;19459;53.044;8.910;2023-10-31T12:46:52;12.40;99.90
33095;DHT22;19459;53.044;8.910;2023-10-31T12:49:19;12.40;99.90
33095;DHT22;19459;53.044;8.910;2023-10-31T12:52:02;12.30;99.90
33095;DHT22;19459;53.044;8.910;2023-10-31T12:54:33;12.20;99.90
33095;DHT22;19459;53.044;8.910;2023-10-31T12:57:04;12.10;99.90
33095;DHT22;19459;53.044;8.910;2023-10-31T12:59:35;12.10;99.90
33095;DHT22;19459;53.044;8.910;2023-10-31T13:02:03;12.00;99.90
33095;DHT22;19459;53.044;8.910;2023-10-31T13:04:31;11.90;99.90
33095;DHT22;19459;53.044;8.910;2023-10-31T13:09:31;11.70;99.90
33095;DHT22;19459;53.044;8.910;2023-10-31T13:12:01;11.60;99.90
33095;DHT22;19459;53.044;8.910;2023-10-31T13:14:31;11.40;99.90
33095;DHT22;19459;53.044;8.910;2023-10-31T13:16:58;11.30;99.90
33095;DHT22;19459;53.044;8.910;2023-10-31T13:19:24;11.20;99.90
33095;DHT22;19459;53.044;8.910;2023-10-31T13:21:51;11.20;99.90
33095;DHT22;19459;53.044;8.910;2023-10-31T13:24:17;11.10;99.90
33095;DHT22;19459;53.044;8.910;2023-10-31T13:26:44;11.10;99.90
33095;DHT22;19459;53.044;8.910;2023-10-31T13:29:10;11.00;99.90
33095;DHT22;19459;53.044;8.910;2023-10-31T13:31:39;11.00;99.90
33095;DHT22;19459;53.044;8.910;2023-10-31T13:34:06;11.00;99.90
33095;DHT22;19459;53.044;8.910;2023-10-31T13:36:31;11.00;99.90
33095;DHT22;19459;53.044;8.910;2023-10-31T13:38:57;10.90;99.90
33095;DHT22;19459;53.044;8.910;2023-10-31T13:41:23;10.90;99.90
33095;DHT22;19459;53.044;8.910;2023-10-31T13:43:49;10.90;99.90
33095;DHT22;19459;53.044;8.910;2023-10-31T13:46:14;10.80;99.90
33095;DHT22;19459;53.044;8.910;2023-10-31T13:48:40;10.80;99.90
33095;DHT22;19459;53.044;8.910;2023-10-31T13:51:07;10.80;99.90
33095;DHT22;19459;53.044;8.910;2023-10-31T13:53:32;10.80;99.90
33095;DHT22;19459;53.044;8.910;2023-10-31T13:55:58;10.80;99.90
33095;DHT22;19459;53.044;8.910;2023-10-31T13:58:24;10.80;99.90
33095;DHT22;19459;53.044;8.910;2023-10-31T14:00:50;10.80;99.90
33095;DHT22;19459;53.044;8.910;2023-10-31T14:03:15;10.70;99.90
33095;DHT22;19459;53.044;8.910;2023-10-31T14:05:42;10.60;99.90
33095;DHT22;19459;53.044;8.910;2023-10-31T14:08:07;10.50;99.90
33095;DHT22;19459;53.044;8.910;2023-10-31T14:10:34;10.60;99.90
33095;DHT22;19459;53.044;8.910;2023-10-31T14:13:00;10.50;99.90
33095;DHT22;19459;53.044;8.910;2023-10-31T14:15:26;10.50;99.90
33095;DHT22;19459;53.044;8.910;2023-10-31T14:17:52;10.60;99.90
33095;DHT22;19459;53.044;8.910;2023-10-31T14:20:18;10.50;99.90
33095;DHT22;19459;53.044;8.910;2023-10-31T14:22:48;10.50;99.90
33095;DHT22;19459;53.044;8.910;2023-10-31T14:25:14;10.40;99.90
33095;DHT22;19459;53.044;8.910;2023-10-31T14:27:41;10.40;99.90
33095;DHT22;19459;53.044;8.910;2023-10-31T14:30:08;10.40;99.90
33095;DHT22;19459;53.044;8.910;2023-10-31T14:32:40;10.30;99.90
33095;DHT22;19459;53.044;8.910;2023-10-31T14:35:06;10.30;99.90
33095;DHT22;19459;53.044;8.910;2023-10-31T14:37:33;10.20;99.90
33095;DHT22;19459;53.044;8.910;2023-10-31T14:39:59;10.20;99.90
33095;DHT22;19459;53.044;8.910;2023-10-31T14:42:24;10.20;99.90
33095;DHT22;19459;53.044;8.910;2023-10-31T14:44:50;10.20;99.90
33095;DHT22;19459;53.044;8.910;2023-10-31T14:47:17;10.20;99.90
33095;DHT22;19459;53.044;8.910;2023-10-31T14:49:44;10.20;99.90
33095;DHT22;19459;53.044;8.910;2023-10-31T14:52:10;10.20;99.90
33095;DHT22;19459;53.044;8.910;2023-10-31T14:54:35;10.20;99.90
33095;DHT22;19459;53.044;8.910;2023-10-31T14:57:02;10.30;99.90
33095;DHT22;19459;53.044;8.910;2023-10-31T14:59:28;10.30;99.90
33095;DHT22;19459;53.044;8.910;2023-10-31T15:01:54;10.30;99.90
33095;DHT22;19459;53.044;8.910;2023-10-31T15:04:19;10.40;99.90
33095;DHT22;19459;53.044;8.910;2023-10-31T15:06:45;10.40;99.90
33095;DHT22;19459;53.044;8.910;2023-10-31T15:09:11;10.40;99.90
33095;DHT22;19459;53.044;8.910;2023-10-31T15:11:37;10.40;99.90
33095;DHT22;19459;53.044;8.910;2023-10-31T15:14:03;10.50;99.90
33095;DHT22;19459;53.044;8.910;2023-10-31T15:16:29;10.50;99.90
33095;DHT22;19459;53.044;8.910;2023-10-31T15:18:55;10.40;99.90
33095;DHT22;19459;53.044;8.910;2023-10-31T15:21:21;10.40;99.90
33095;DHT22;19459;53.044;8.910;2023-10-31T15:23:47;10.30;99.90
33095;DHT22;19459;53.044;8.910;2023-10-31T15:26:13;10.20;99.90
33095;DHT22;19459;53.044;8.910;2023-10-31T15:28:40;10.20;99.90
33095;DHT22;19459;53.044;8.910;2023-10-31T15:31:08;10.10;99.90
33095;DHT22;19459;53.044;8.910;2023-10-31T15:33:34;10.00;99.90
33095;DHT22;19459;53.044;8.910;2023-10-31T15:36:00;10.00;99.90
33095;DHT22;19459;53.044;8.910;2023-10-31T15:38:28;10.00;99.90
33095;DHT22;19459;53.044;8.910;2023-10-31T15:40:54;9.90;99.90
33095;DHT22;19459;53.044;8.910;2023-10-31T15:43:20;9.90;99.90
33095;DHT22;19459;53.044;8.910;2023-10-31T15:45:46;9.90;99.90
33095;DHT22;19459;53.044;8.910;2023-10-31T15:48:12;9.90;99.90
33095;DHT22;19459;53.044;8.910;2023-10-31T15:50:39;9.80;99.90
33095;DHT22;19459;53.044;8.910;2023-10-31T15:53:05;9.70;99.90
33095;DHT22;19459;53.044;8.910;2023-10-31T15:55:30;9.60;99.90
33095;DHT22;19459;53.044;8.910;2023-10-31T15:57:56;9.60;99.90
33095;DHT22;19459;53.044;8.910;2023-10-31T16:00:23;9.60;99.90
33095;DHT22;19459;53.044;8.910;2023-10-31T16:02:49;9.50;99.90
33095;DHT22;19459;53.044;8.910;2023-10-31T16:05:15;9.50;99.90
33095;DHT22;19459;53.044;8.910;2023-10-31T16:07:41;9.50;99.90
33095;DHT22;19459;53.044;8.910;2023-10-31T16:10:07;9.40;99.90
33095;DHT22;19459;53.044;8.910;2023-10-31T16:12:33;9.40;99.90
33095;DHT22;19459;53.044;8.910;2023-10-31T16:14:59;9.30;99.90
33095;DHT22;19459;53.044;8.910;2023-10-31T16:17:24;9.30;99.90
33095;DHT22;19459;53.044;8.910;2023-10-31T16:19:50;9.30;99.90
33095;DHT22;19459;53.044;8.910;2023-10-31T16:22:17;9.30;99.90
33095;DHT22;19459;53.044;8.910;2023-10-31T16:24:44;9.30;99.90
33095;DHT22;19459;53.044;8.910;2023-10-31T16:27:10;9.30;99.90
33095;DHT22;19459;53.044;8.910;2023-10-31T16:29:36;9.30;99.90
33095;DHT22;19459;53.044;8.910;2023-10-31T16:32:02;9.30;99.90
33095;DHT22;19459;53.044;8.910;2023-10-31T16:34:30;9.30;99.90
33095;DHT22;19459;53.044;8.910;2023-10-31T16:36:56;9.30;99.90
33095;DHT22;19459;53.044;8.910;2023-10-31T16:39:24;9.30;99.90
33095;DHT22;19459;53.044;8.910;2023-10-31T16:41:50;9.30;99.90
33095;DHT22;19459;53.044;8.910;2023-10-31T16:44:15;9.30;99.90
33095;DHT22;19459;53.044;8.910;2023-10-31T16:46:44;9.30;99.90
33095;DHT22;19459;53.044;8.910;2023-10-31T16:49:11;9.30;99.90
33095;DHT22;19459;53.044;8.910;2023-10-31T16:51:38;9.30;99.90
33095;DHT22;19459;53.044;8.910;2023-10-31T16:54:04;9.30;99.90
33095;DHT22;19459;53.044;8.910;2023-10-31T16:56:30;9.30;99.90
33095;DHT22;19459;53.044;8.910;2023-10-31T16:58:56;9.30;99.90
33095;DHT22;19459;53.044;8.910;2023-10-31T17:01:22;9.30;99.90
33095;DHT22;19459;53.044;8.910;2023-10-31T17:03:50;9.40;99.90
33095;DHT22;19459;53.044;8.910;2023-10-31T17:06:16;9.40;99.90
33095;DHT22;19459;53.044;8.910;2023-10-31T17:08:42;9.40;99.90
33095;DHT22;19459;53.044;8.910;2023-10-31T17:11:10;9.40;99.90
33095;DHT22;19459;53.044;8.910;2023-10-31T17:13:36;9.40;99.90
33095;DHT22;19459;53.044;8.910;2023-10-31T17:16:03;9.40;99.90
33095;DHT22;19459;53.044;8.910;2023-10-31T17:18:30;9.40;99.90